Terminal Aerodrome Forecast
Issued by NWS Sioux Falls, SD

Home | Current Version | Previous Version | Text Only | Print | Product List | Glossary Off
Versions: 1 2 3 4 5 6 7 8 9 10 11 12 13 14 15

244
FTUS43 KFSD 142207 AAA
TAFHON
TAF AMD
KHON 142207Z 1422/1518 34012G20KT P6SM SCT015 OVC035
     FM150000 30009KT P6SM OVC040
     FM150800 26007KT P6SM BKN045=

USA.gov is the U.S. government's official web portal to all federal, state and local government web resources and services.